createdAt,value
2022-09-04T00:00:28.495Z,10.76
2022-09-04T00:03:23.236Z,10.85
2022-09-04T00:06:00.918Z,10.90
2022-09-04T00:08:33.685Z,10.91
2022-09-04T00:11:08.747Z,10.91
2022-09-04T00:13:43.826Z,10.92
2022-09-04T00:16:22.614Z,10.84
2022-09-04T00:19:08.846Z,10.80
2022-09-04T00:21:59.332Z,10.70
2022-09-04T00:24:42.102Z,10.61
2022-09-04T00:27:21.449Z,10.54
2022-09-04T00:30:06.535Z,10.44
2022-09-04T00:32:51.850Z,10.34
2022-09-04T00:35:44.692Z,10.25
2022-09-04T00:38:53.996Z,10.16
2022-09-04T00:41:34.955Z,10.10
2022-09-04T00:44:33.330Z,10.02
2022-09-04T00:47:13.665Z,9.94
2022-09-04T00:50:02.532Z,9.88
2022-09-04T00:53:06.999Z,9.77
2022-09-04T00:56:01.010Z,9.71
2022-09-04T00:58:48.260Z,9.63
2022-09-04T01:01:22.428Z,9.54
2022-09-04T01:04:02.747Z,9.50
2022-09-04T01:07:05.976Z,9.46
2022-09-04T01:09:54.367Z,9.48
2022-09-04T01:12:36.670Z,9.52
2022-09-04T01:15:28.796Z,9.56
2022-09-04T01:18:13.973Z,9.60
2022-09-04T01:20:52.551Z,9.64
2022-09-04T01:23:41.180Z,9.68
2022-09-04T01:26:28.178Z,9.70
2022-09-04T01:29:14.445Z,9.74
2022-09-04T01:31:57.521Z,9.81
2022-09-04T01:35:02.418Z,9.86
2022-09-04T01:38:04.245Z,9.93
2022-09-04T01:40:48.494Z,10.02
2022-09-04T01:43:21.140Z,10.12
2022-09-04T01:46:33.567Z,10.20
2022-09-04T01:49:05.183Z,10.28
2022-09-04T01:51:50.728Z,10.33
2022-09-04T01:54:36.262Z,10.40
2022-09-04T01:57:24.127Z,10.48
2022-09-04T02:00:09.638Z,10.56
2022-09-04T02:02:44.255Z,10.60
2022-09-04T02:06:01.730Z,10.64
2022-09-04T02:08:49.981Z,10.72
2022-09-04T02:11:27.978Z,10.77
2022-09-04T02:14:23.903Z,10.81
2022-09-04T02:17:12.569Z,10.87
2022-09-04T02:20:29.700Z,10.91
2022-09-04T02:23:05.524Z,10.96
2022-09-04T02:25:45.004Z,11.00
2022-09-04T02:28:43.029Z,11.03
2022-09-04T02:31:29.738Z,11.07
2022-09-04T02:33:56.529Z,11.10
2022-09-04T02:36:33.953Z,11.13
2022-09-04T02:39:39.872Z,11.15
2022-09-04T02:42:32.417Z,11.18
2022-09-04T02:45:08.126Z,11.18
2022-09-04T02:47:35.101Z,11.19
2022-09-04T02:50:23.110Z,11.23
2022-09-04T02:53:03.215Z,11.22
2022-09-04T02:56:09.601Z,11.24
2022-09-04T02:59:13.422Z,11.26
2022-09-04T03:01:49.998Z,11.28
2022-09-04T03:04:42.787Z,11.29
2022-09-04T03:07:18.159Z,11.34
2022-09-04T03:09:56.266Z,11.37
2022-09-04T03:12:41.481Z,11.40
2022-09-04T03:15:23.399Z,11.36
2022-09-04T03:18:19.876Z,11.36
2022-09-04T03:20:56.623Z,11.37
2022-09-04T03:23:42.249Z,11.38
2022-09-04T03:26:31.609Z,11.39
2022-09-04T03:29:05.131Z,11.40
2022-09-04T03:31:40.276Z,11.42
2022-09-04T03:34:16.336Z,11.41
2022-09-04T03:36:49.717Z,11.43
2022-09-04T03:39:29.376Z,11.41
2022-09-04T03:42:34.656Z,11.40
2022-09-04T03:45:20.016Z,11.40
2022-09-04T03:48:12.367Z,11.40
2022-09-04T03:51:28.365Z,11.40
2022-09-04T03:54:09.932Z,11.41
2022-09-04T03:56:45.836Z,11.42
2022-09-04T03:59:26.590Z,11.42
2022-09-04T04:02:15.242Z,11.45
2022-09-04T04:05:03.241Z,11.44
2022-09-04T04:07:58.803Z,11.45
2022-09-04T04:10:31.180Z,11.48
2022-09-04T04:13:10.409Z,11.48
2022-09-04T04:16:02.065Z,11.50
2022-09-04T04:18:37.989Z,11.50
2022-09-04T04:21:33.781Z,11.51
2022-09-04T04:24:39.037Z,11.52
2022-09-04T04:27:21.003Z,11.53
2022-09-04T04:30:00.998Z,11.56
2022-09-04T04:32:27.962Z,11.60
2022-09-04T04:35:12.718Z,11.68
2022-09-04T04:38:01.562Z,11.88
2022-09-04T04:40:28.317Z,12.12
2022-09-04T04:43:03.439Z,12.46
2022-09-04T04:45:51.347Z,12.86
2022-09-04T04:48:37.946Z,13.18
2022-09-04T04:51:40.746Z,13.42
2022-09-04T04:54:38.397Z,13.54
2022-09-04T04:57:20.348Z,13.54
2022-09-04T05:00:07.035Z,13.57
2022-09-04T05:02:55.674Z,13.51
2022-09-04T05:05:41.809Z,13.70
2022-09-04T05:08:54.276Z,13.82
2022-09-04T05:11:35.841Z,13.89
2022-09-04T05:14:27.687Z,13.94
2022-09-04T05:17:03.890Z,14.25
2022-09-04T05:20:08.292Z,14.62
2022-09-04T05:22:45.566Z,14.90
2022-09-04T05:25:43.366Z,14.89
2022-09-04T05:28:23.933Z,14.53
2022-09-04T05:31:42.110Z,14.17
2022-09-04T05:34:21.323Z,14.03
2022-09-04T05:37:00.385Z,14.08
2022-09-04T05:39:30.696Z,14.31
2022-09-04T05:42:06.941Z,14.51
2022-09-04T05:44:52.762Z,14.66
2022-09-04T05:47:30.645Z,14.69
2022-09-04T05:50:21.941Z,14.51
2022-09-04T05:53:19.611Z,14.39
2022-09-04T05:56:14.548Z,14.28
2022-09-04T05:58:50.614Z,13.96
2022-09-04T06:01:54.514Z,13.73
2022-09-04T06:04:45.875Z,13.71
2022-09-04T06:07:16.467Z,13.89
2022-09-04T06:10:07.374Z,14.28
2022-09-04T06:12:49.618Z,14.55
2022-09-04T06:15:35.326Z,14.61
2022-09-04T06:18:32.914Z,14.61
2022-09-04T06:21:12.011Z,14.65
2022-09-04T06:23:57.861Z,14.48
2022-09-04T06:26:45.898Z,14.31
2022-09-04T06:29:32.367Z,14.21
2022-09-04T06:32:23.186Z,14.18
2022-09-04T06:35:11.532Z,14.12
2022-09-04T06:38:07.172Z,14.19
2022-09-04T06:40:59.704Z,14.27
2022-09-04T06:43:48.865Z,14.37
2022-09-04T06:46:24.238Z,14.44
2022-09-04T06:49:14.024Z,14.54
2022-09-04T06:52:03.322Z,14.66
2022-09-04T06:54:40.646Z,14.80
2022-09-04T06:57:07.622Z,14.91
2022-09-04T06:59:54.627Z,14.91
2022-09-04T07:02:40.269Z,14.85
2022-09-04T07:05:25.175Z,14.87
2022-09-04T07:08:09.394Z,14.98
2022-09-04T07:10:59.708Z,15.09
2022-09-04T07:13:51.067Z,15.30
2022-09-04T07:16:39.939Z,15.54
2022-09-04T07:19:09.895Z,15.66
2022-09-04T07:22:07.549Z,15.68
2022-09-04T07:25:01.915Z,15.78
2022-09-04T07:27:55.904Z,15.87
2022-09-04T07:30:26.147Z,16.06
2022-09-04T07:33:35.359Z,16.41
2022-09-04T07:36:21.004Z,16.80
2022-09-04T07:39:09.539Z,16.98
2022-09-04T07:41:51.610Z,16.92
2022-09-04T07:44:24.372Z,16.96
2022-09-04T07:47:16.328Z,16.99
2022-09-04T07:50:09.433Z,17.16
2022-09-04T07:52:54.746Z,17.24
2022-09-04T07:55:43.600Z,17.24
2022-09-04T07:58:25.880Z,17.35
2022-09-04T08:01:09.247Z,17.50
2022-09-04T08:04:04.877Z,17.52
2022-09-04T08:06:37.748Z,17.60
2022-09-04T08:09:13.838Z,17.59
2022-09-04T08:11:58.277Z,17.60
2022-09-04T08:14:32.561Z,17.59
2022-09-04T08:17:20.963Z,17.52
2022-09-04T08:19:59.059Z,17.38
2022-09-04T08:22:39.102Z,17.50
2022-09-04T08:25:24.111Z,17.64
2022-09-04T08:28:09.311Z,17.82
2022-09-04T08:30:47.267Z,17.90
2022-09-04T08:33:28.341Z,18.13
2022-09-04T08:36:25.447Z,18.23
2022-09-04T08:39:14.940Z,18.52
2022-09-04T08:42:13.286Z,18.89
2022-09-04T08:44:51.887Z,19.23
2022-09-04T08:47:21.599Z,19.74
2022-09-04T08:50:23.937Z,20.02
2022-09-04T08:53:26.175Z,20.17
2022-09-04T08:56:37.795Z,19.96
2022-09-04T08:59:23.195Z,20.09
2022-09-04T09:02:03.384Z,20.37
2022-09-04T09:05:00.100Z,20.63
2022-09-04T09:07:54.686Z,20.91
2022-09-04T09:10:27.737Z,20.95
2022-09-04T09:13:15.729Z,21.06
2022-09-04T09:15:51.777Z,21.23
2022-09-04T09:18:40.411Z,21.55
2022-09-04T09:21:36.120Z,22.18
2022-09-04T09:24:35.909Z,22.63
2022-09-04T09:27:38.359Z,23.31
2022-09-04T09:30:14.762Z,23.97
2022-09-04T09:33:12.492Z,24.62
2022-09-04T09:36:12.222Z,25.06
2022-09-04T09:39:07.288Z,25.74
2022-09-04T09:41:34.020Z,26.83
2022-09-04T09:44:09.783Z,27.14
2022-09-04T09:47:05.811Z,27.12
2022-09-04T09:49:51.376Z,26.71
2022-09-04T09:52:53.051Z,26.64
2022-09-04T09:55:22.693Z,26.53
2022-09-04T09:58:26.454Z,26.35
2022-09-04T10:00:59.950Z,26.68
2022-09-04T10:03:39.125Z,26.63
2022-09-04T10:06:45.866Z,26.96
2022-09-04T10:09:37.398Z,27.47
2022-09-04T10:12:30.960Z,27.20
2022-09-04T10:15:06.624Z,26.87
2022-09-04T10:18:10.868Z,26.87
2022-09-04T10:21:10.505Z,26.61
2022-09-04T10:24:07.163Z,26.82
2022-09-04T10:26:48.997Z,27.15
2022-09-04T10:29:36.535Z,26.92
2022-09-04T10:32:03.274Z,26.56
2022-09-04T10:34:50.478Z,25.36
2022-09-04T10:37:17.236Z,24.14
2022-09-04T10:40:21.647Z,23.62
2022-09-04T10:43:19.289Z,23.19
2022-09-04T10:45:54.899Z,23.68
2022-09-04T10:48:46.724Z,24.47
2022-09-04T10:51:33.474Z,24.06
2022-09-04T10:54:21.566Z,23.07
2022-09-04T10:56:54.599Z,22.53
2022-09-04T11:00:08.043Z,22.00
2022-09-04T11:02:53.409Z,21.72
2022-09-04T11:05:44.499Z,21.57
2022-09-04T11:08:19.902Z,21.45
2022-09-04T11:11:19.324Z,21.15
2022-09-04T11:14:14.880Z,21.08
2022-09-04T11:17:19.750Z,20.91
2022-09-04T11:19:56.164Z,21.44
2022-09-04T11:22:44.302Z,21.64
2022-09-04T11:25:39.191Z,21.47
2022-09-04T11:28:19.666Z,21.14
2022-09-04T11:31:21.085Z,20.97
2022-09-04T11:34:15.821Z,20.87
2022-09-04T11:36:49.437Z,20.94
2022-09-04T11:39:47.459Z,21.16
2022-09-04T11:42:29.771Z,21.43
2022-09-04T11:45:27.024Z,21.42
2022-09-04T11:48:12.155Z,21.51
2022-09-04T11:51:02.786Z,21.49
2022-09-04T11:53:40.963Z,21.59
2022-09-04T11:56:32.211Z,21.78
2022-09-04T11:59:18.020Z,21.90
2022-09-04T12:02:18.586Z,21.85
2022-09-04T12:05:17.235Z,21.74
2022-09-04T12:08:07.197Z,22.38
2022-09-04T12:10:55.981Z,23.01
2022-09-04T12:13:47.480Z,23.50
2022-09-04T12:16:14.588Z,23.57
2022-09-04T12:18:58.498Z,23.32
2022-09-04T12:21:41.122Z,23.04
2022-09-04T12:24:39.238Z,23.28
2022-09-04T12:27:24.963Z,24.23
2022-09-04T12:30:14.984Z,25.09
2022-09-04T12:33:00.087Z,25.69
2022-09-04T12:35:56.103Z,26.12
2022-09-04T12:38:38.559Z,26.21
2022-09-04T12:41:20.125Z,26.49
2022-09-04T12:43:52.861Z,26.82
2022-09-04T12:46:56.010Z,27.20
2022-09-04T12:49:58.293Z,26.75
2022-09-04T12:52:43.603Z,25.51
2022-09-04T12:55:25.642Z,25.00
2022-09-04T12:58:21.513Z,24.52
2022-09-04T13:01:10.642Z,23.60
2022-09-04T13:03:46.794Z,22.71
2022-09-04T13:06:53.267Z,22.10
2022-09-04T13:09:39.044Z,21.90
2022-09-04T13:12:19.706Z,21.83
2022-09-04T13:15:04.964Z,21.80
2022-09-04T13:17:58.501Z,21.70
2022-09-04T13:20:43.571Z,21.56
2022-09-04T13:23:46.590Z,21.61
2022-09-04T13:26:42.876Z,21.85
2022-09-04T13:29:23.379Z,22.02
2022-09-04T13:31:56.679Z,22.06
2022-09-04T13:34:24.419Z,22.09
2022-09-04T13:37:11.901Z,21.87
2022-09-04T13:39:45.037Z,21.48
2022-09-04T13:42:42.509Z,21.30
2022-09-04T13:45:28.559Z,21.21
2022-09-04T13:48:11.683Z,21.00
2022-09-04T13:50:58.219Z,21.05
2022-09-04T13:53:40.003Z,21.15
2022-09-04T13:56:16.822Z,21.32
2022-09-04T13:58:49.660Z,21.33
2022-09-04T14:01:23.954Z,21.20
2022-09-04T14:03:59.463Z,21.19
2022-09-04T14:06:29.926Z,21.24
2022-09-04T14:09:05.123Z,21.22
2022-09-04T14:11:41.793Z,21.18
2022-09-04T14:14:15.031Z,21.20
2022-09-04T14:16:44.037Z,21.24
2022-09-04T14:19:32.443Z,21.11
2022-09-04T14:22:15.960Z,21.06
2022-09-04T14:24:45.989Z,21.05
2022-09-04T14:27:21.919Z,20.87
2022-09-04T14:30:08.576Z,20.57
2022-09-04T14:32:55.684Z,20.28
2022-09-04T14:35:46.928Z,20.07
2022-09-04T14:38:41.269Z,19.94
2022-09-04T14:41:36.079Z,20.04
2022-09-04T14:44:20.916Z,20.16
2022-09-04T14:47:25.516Z,20.25
2022-09-04T14:50:01.319Z,20.32
2022-09-04T14:52:37.785Z,20.32
2022-09-04T14:55:07.128Z,20.26
2022-09-04T14:57:47.635Z,20.17
2022-09-04T15:00:20.726Z,20.08
2022-09-04T15:03:02.506Z,19.96
2022-09-04T15:05:35.637Z,19.78
2022-09-04T15:08:10.937Z,19.71
2022-09-04T15:10:50.642Z,19.70
2022-09-04T15:13:31.403Z,19.76
2022-09-04T15:16:09.983Z,19.82
2022-09-04T15:18:53.632Z,19.87
2022-09-04T15:21:43.590Z,19.81
2022-09-04T15:24:16.341Z,19.77
2022-09-04T15:26:46.371Z,19.69
2022-09-04T15:29:19.392Z,19.60
2022-09-04T15:31:46.547Z,19.55
2022-09-04T15:34:24.596Z,19.51
2022-09-04T15:36:52.092Z,19.48
2022-09-04T15:39:32.938Z,19.45
2022-09-04T15:42:00.183Z,19.36
2022-09-04T15:44:41.150Z,19.36
2022-09-04T15:47:34.154Z,19.33
2022-09-04T15:50:17.294Z,19.31
2022-09-04T15:52:59.848Z,19.28
2022-09-04T15:55:31.495Z,19.27
2022-09-04T15:58:13.519Z,19.26
2022-09-04T16:01:06.670Z,19.22
2022-09-04T16:04:18.407Z,19.13
2022-09-04T16:06:54.222Z,19.06
2022-09-04T16:09:50.189Z,18.94
2022-09-04T16:12:35.198Z,18.83
2022-09-04T16:15:04.759Z,18.76
2022-09-04T16:17:33.398Z,18.61
2022-09-04T16:20:18.455Z,18.55
2022-09-04T16:22:51.658Z,18.47
2022-09-04T16:25:19.210Z,18.41
2022-09-04T16:27:50.587Z,18.32
2022-09-04T16:30:34.443Z,18.25
2022-09-04T16:33:03.911Z,18.17
2022-09-04T16:35:41.603Z,18.03
2022-09-04T16:38:23.901Z,17.97
2022-09-04T16:41:15.680Z,17.85
2022-09-04T16:44:14.693Z,17.73
2022-09-04T16:47:02.869Z,17.64
2022-09-04T16:49:57.546Z,17.50
2022-09-04T16:52:44.648Z,17.38
2022-09-04T16:55:32.230Z,17.24
2022-09-04T16:58:13.352Z,17.15
2022-09-04T17:01:13.968Z,17.01
2022-09-04T17:03:46.608Z,16.88
2022-09-04T17:06:32.196Z,16.72
2022-09-04T17:09:40.570Z,16.53
2022-09-04T17:12:38.277Z,16.31
2022-09-04T17:15:23.639Z,16.13
2022-09-04T17:17:53.864Z,15.97
2022-09-04T17:22:07.162Z,15.78
2022-09-04T17:28:57.772Z,15.55
2022-09-04T17:29:09.937Z,15.34
2022-09-04T17:29:38.253Z,15.16
2022-09-04T17:35:35.410Z,15.00
2022-09-04T17:40:35.106Z,14.81
2022-09-04T17:40:48.577Z,14.62
2022-09-04T17:42:13.974Z,14.35
2022-09-04T17:44:50.545Z,14.20
2022-09-04T17:47:34.677Z,14.00
2022-09-04T17:50:02.311Z,13.89
2022-09-04T17:52:53.336Z,13.77
2022-09-04T17:55:21.234Z,13.64
2022-09-04T17:57:56.575Z,13.52
2022-09-04T18:00:29.292Z,13.45
2022-09-04T18:03:04.288Z,13.35
2022-09-04T18:05:56.811Z,13.22
2022-09-04T18:08:32.778Z,13.13
2022-09-04T18:11:20.984Z,13.01
2022-09-04T18:14:11.363Z,12.86
2022-09-04T18:16:42.414Z,12.80
2022-09-04T18:19:29.493Z,12.72
2022-09-04T18:22:26.342Z,12.59
2022-09-04T18:25:16.871Z,12.51
2022-09-04T18:28:12.314Z,12.40
2022-09-04T18:37:10.293Z,12.29
2022-09-04T18:37:22.284Z,12.12
2022-09-04T18:37:22.453Z,12.22
2022-09-04T18:39:50.275Z,12.04
2022-09-04T18:48:54.926Z,11.94
2022-09-04T18:50:42.919Z,11.85
2022-09-04T18:50:48.965Z,11.77
2022-09-04T18:51:25.111Z,11.68
2022-09-04T18:54:01.606Z,11.60
2022-09-04T18:56:41.504Z,11.56
2022-09-04T18:59:30.896Z,11.46
2022-09-04T19:02:19.794Z,11.34
2022-09-04T19:04:46.737Z,11.24
2022-09-04T19:07:35.629Z,11.18
2022-09-04T19:10:20.042Z,11.14
2022-09-04T19:12:49.702Z,11.10
2022-09-04T19:15:36.862Z,11.05
2022-09-04T19:18:30.314Z,10.94
2022-09-04T19:21:12.538Z,10.89
2022-09-04T19:23:50.893Z,10.83
2022-09-04T19:26:52.647Z,10.77
2022-09-04T19:29:46.224Z,10.67
2022-09-04T19:32:32.263Z,10.60
2022-09-04T19:35:12.073Z,10.56
2022-09-04T19:44:36.651Z,10.49
2022-09-04T19:45:58.957Z,10.43
2022-09-04T19:46:11.434Z,10.36
2022-09-04T19:47:28.780Z,10.31
2022-09-04T19:53:18.472Z,10.15
2022-09-04T19:53:39.087Z,10.06
2022-09-04T19:56:29.984Z,10.03
2022-09-04T19:59:00.899Z,9.98
2022-09-04T20:01:39.009Z,9.93
2022-09-04T20:04:21.611Z,9.87
2022-09-04T20:06:52.780Z,9.85
2022-09-04T20:09:36.233Z,9.81
2022-09-04T20:12:19.590Z,9.77
2022-09-04T20:14:53.700Z,9.73
2022-09-04T20:17:44.795Z,9.65
2022-09-04T20:20:26.113Z,9.62
2022-09-04T20:23:34.769Z,9.57
2022-09-04T20:26:23.603Z,9.46
2022-09-04T20:29:18.913Z,9.40
2022-09-04T20:32:00.590Z,9.36
2022-09-04T20:34:40.065Z,9.32
2022-09-04T20:37:25.733Z,9.24
2022-09-04T20:40:04.144Z,9.24
2022-09-04T20:42:40.175Z,9.25
2022-09-04T20:48:55.129Z,9.28
2022-09-04T20:52:48.682Z,9.42
2022-09-04T20:52:50.862Z,9.35
2022-09-04T20:55:05.695Z,9.49
2022-09-04T21:03:09.575Z,9.53
2022-09-04T21:03:20.357Z,9.58
2022-09-04T21:04:14.413Z,9.55
2022-09-04T21:06:52.104Z,9.54
2022-09-04T21:09:29.511Z,9.52
2022-09-04T21:12:31.621Z,9.48
2022-09-04T21:15:23.203Z,9.43
2022-09-04T21:18:29.456Z,9.37
2022-09-04T21:21:21.618Z,9.33
2022-09-04T21:24:25.437Z,9.29
2022-09-04T21:27:09.077Z,9.27
2022-09-04T21:30:07.025Z,9.24
2022-09-04T21:33:27.188Z,9.21
2022-09-04T21:36:26.601Z,9.18
2022-09-04T21:38:56.874Z,9.12
2022-09-04T21:42:17.346Z,9.07
2022-09-04T21:45:12.326Z,9.03
2022-09-04T21:47:45.666Z,8.98
2022-09-04T21:50:23.293Z,8.93
2022-09-04T21:53:27.754Z,8.86
2022-09-04T22:00:32.061Z,8.83
2022-09-04T22:02:29.145Z,8.73
2022-09-04T22:02:52.823Z,8.69
2022-09-04T22:05:21.203Z,8.64
2022-09-04T22:12:25.840Z,8.57
2022-09-04T22:13:43.500Z,8.52
2022-09-04T22:13:49.259Z,8.48
2022-09-04T22:16:41.983Z,8.44
2022-09-04T22:19:16.725Z,8.40
2022-09-04T22:22:03.486Z,8.39
2022-09-04T22:24:53.024Z,8.35
2022-09-04T22:27:25.686Z,8.32
2022-09-04T22:30:11.669Z,8.26
2022-09-04T22:33:07.300Z,8.18
2022-09-04T22:35:40.318Z,8.14
2022-09-04T22:38:25.498Z,8.11
2022-09-04T22:41:10.607Z,8.07
2022-09-04T22:43:46.565Z,8.04
2022-09-04T22:46:33.036Z,7.99
2022-09-04T22:49:22.500Z,7.98
2022-09-04T22:52:33.394Z,7.98
2022-09-04T22:55:29.263Z,7.95
2022-09-04T22:58:31.782Z,7.91
2022-09-04T23:01:39.938Z,7.89
2022-09-04T23:04:12.775Z,7.80
2022-09-04T23:08:34.549Z,7.79
2022-09-04T23:13:53.602Z,7.73
2022-09-04T23:14:02.409Z,7.69
2022-09-04T23:16:23.400Z,7.64
2022-09-04T23:26:32.481Z,7.61
2022-09-04T23:26:41.586Z,7.60
2022-09-04T23:26:44.992Z,7.53
2022-09-04T23:28:51.663Z,7.52
2022-09-04T23:32:13.366Z,7.50
2022-09-04T23:35:16.343Z,7.47
2022-09-04T23:38:10.871Z,7.44
2022-09-04T23:41:30.703Z,7.44
2022-09-04T23:44:47.050Z,7.40
2022-09-04T23:47:57.211Z,7.41
2022-09-04T23:50:57.608Z,7.38
2022-09-04T23:54:25.293Z,7.34
2022-09-04T23:57:27.953Z,7.31
